Date,TemperatureHighF,TemperatureAvgF,TemperatureLowF,DewpointHighF,DewpointAvgF,DewpointLowF,HumidityHigh,HumidityAvg,HumidityLow,PressureMaxIn,PressureMinIn,WindSpeedMaxMPH,WindSpeedAvgMPH,GustSpeedMaxMPH,PrecipitationSumIn
2013-1-2,15.3,13.1,11.3,13.1,10.9,8.9,91,91,90,30.66,30.61,0,0,0,0.00
2013-1-3,31.1,17.3,4.2,23.1,12.0,1.3,94,80,64,30.61,30.45,0,0,0,0.00
2013-1-4,40.7,30.5,21.7,29.6,23.1,16.0,94,74,57,30.49,30.33,0,0,0,0.03
2013-1-5,29.7,26.4,23.6,26.4,21.5,18.0,92,81,71,30.35,30.28,0,0,0,0.00
2013-1-6,40.4,32.5,23.5,30.5,26.8,20.5,92,80,65,30.31,30.14,0,0,0,0.02
2013-1-7,46.9,39.5,33.0,37.2,32.8,28.5,91,77,64,30.19,30.07,11,1,11,0.00
2013-1-8,48.1,41.1,37.4,38.7,35.6,31.4,89,81,65,30.20,30.00,25,9,25,0.00
2013-1-9,44.4,36.4,25.4,36.2,29.4,21.5,91,76,62,30.00,29.75,32,7,32,0.02
2013-1-10,33.1,26.1,21.9,25.6,19.7,16.7,88,77,56,30.11,29.91,21,2,21,0.01
2013-1-11,28.8,22.0,16.8,18.9,15.3,12.7,87,76,56,30.35,30.09,11,1,11,0.00
2013-1-12,27.7,17.1,10.6,14.2,10.0,6.5,86,75,49,30.49,30.34,18,3,18,0.00
2013-1-13,28.7,18.4,9.8,11.2,7.7,3.7,86,64,37,30.56,30.46,11,1,11,0.00
2013-1-14,41.3,25.6,14.0,24.4,14.1,6.0,77,62,39,30.57,30.49,20,5,20,0.00
2013-1-15,54.1,36.7,24.4,28.4,21.4,17.1,77,56,31,30.68,30.56,13,4,15,0.00
2013-1-16,57.6,43.1,33.0,22.6,19.5,15.2,59,41,20,30.65,30.48,17,5,17,0.00
2013-1-17,55.3,38.9,29.8,26.7,21.4,18.7,65,51,26,30.49,30.38,19,4,19,0.00
2013-1-18,55.4,38.6,29.3,26.7,21.2,18.5,65,51,28,30.41,30.36,21,5,21,0.00
2013-1-19,57.6,40.2,30.4,27.1,20.2,16.5,59,46,23,30.43,30.35,17,3,17,0.00
2013-1-20,49.9,35.3,25.1,21.7,18.6,15.3,67,52,29,30.47,30.37,16,3,16,0.00
2013-1-21,54.9,37.0,26.6,21.6,16.4,11.3,63,45,19,30.38,30.23,26,5,26,0.00
2013-1-22,45.1,33.8,27.2,24.6,19.5,14.5,80,57,37,30.24,30.09,15,2,15,0.00
2013-1-23,50.7,41.8,34.5,37.0,26.9,16.2,88,58,34,30.12,29.86,27,5,27,0.00
2013-1-24,51.3,41.6,32.2,38.8,34.8,30.7,97,78,56,30.19,30.12,21,5,21,0.00
2013-1-25,45.3,42.1,36.6,40.2,38.2,34.8,93,86,76,30.16,29.92,31,7,31,0.01
2013-1-26,41.3,34.1,28.5,35.0,25.9,21.2,95,73,50,30.07,29.92,17,3,17,0.00
2013-1-27,38.4,31.2,26.6,27.2,23.7,18.0,88,75,46,30.15,30.06,14,4,15,0.00
2013-1-28,40.1,34.4,30.6,27.5,26.0,23.6,86,71,54,30.17,30.07,17,3,18,0.00
2013-1-29,47.0,40.1,36.5,33.8,30.5,27.0,81,69,59,30.41,30.13,18,4,18,0.00
2013-1-30,49.9,40.7,35.4,37.1,32.8,28.3,85,74,58,30.45,30.40,14,5,14,0.00
2013-1-31,48.8,38.4,31.0,34.9,31.7,27.8,90,78,55,30.41,30.32,16,3,16,0.00